Phillips, Wisconsin
Current Conditions -  °F | °C
As of 9:35 AM on Monday 22 Dec 2014 (Local Time) from KPBH Reporting Station
Haze Haze  
Wind Chill: -5°   Ceiling: 500
Heat Index:   Visibility: 3mi
Dew Point:   Wind: 10mph
Humidity: 98%   Direction: 140°SE
Pressure: 29.77"   Gusts: NA
Location:  45.69°N, 90.41°W
Report Text: KPBH 221535Z AUTO 14009KT 3SM BR OVC005 00/00 A2977 RMK AO2 T00001003
Loading
Personal Weather Stations






























Interactive Weather Map New forecast layout! Learn more

10-Day Weather Forecast

Advertisements
Track Severe Weather on mobile